This is the latest recevied weather packets stored in our database for station/object OH2HCY. If no packets are shown the sender has not sent any weather packets the latest 10 day(s).
| Time | Temp. | Humidity | Pressure | Rain* | Wind** | Luminosity | Snow |
|---|---|---|---|---|---|---|---|
| 1777959505 | 7.78° C | 75% | 998.6 hPa | - | - | - | - |
| 1777958960 | 7.78° C | 77% | 998.9 hPa | - | - | - | - |
| 1777958475 | 7.22° C | 79% | 998.9 hPa | - | - | - | - |
| 1777957968 | 6.67° C | 81% | 999.2 hPa | - | - | - | - |
| 1777957436 | 6.11° C | 85% | 999.6 hPa | - | - | - | - |
| 1777956933 | 5.56° C | 86% | 999.8 hPa | - | - | - | - |
| 1777956385 | 5° C | 88% | 1000 hPa | - | - | - | - |
| 1777955860 | 5° C | 89% | 1000.1 hPa | - | - | - | - |
| 1777955315 | 4.44° C | 90% | 1000.4 hPa | - | - | - | - |
| 1777954805 | 4.44° C | 90% | 1000.2 hPa | - | - | - | - |
| 1777954260 | 4.44° C | 91% | 1000.1 hPa | - | - | - | - |
| 1777953740 | 4.44° C | 91% | 1000.1 hPa | - | - | - | - |
| 1777953220 | 4.44° C | 90% | 1000.2 hPa | - | - | - | - |
| 1777952670 | 4.44° C | 90% | 1000.3 hPa | - | - | - | - |
| 1777952167 | 4.44° C | 90% | 1000.3 hPa | - | - | - | - |
| 1777951640 | 5° C | 89% | 1000.3 hPa | - | - | - | - |
| 1777951075 | 5° C | 89% | 1000.1 hPa | - | - | - | - |
| 1777950523 | 5° C | 88% | 1000.2 hPa | - | - | - | - |
| 1777950005 | 5° C | 88% | 1000.3 hPa | - | - | - | - |
| 1777949475 | 5.56° C | 88% | 1000.2 hPa | - | - | - | - |
| 1777948935 | 5.56° C | 88% | 1000.2 hPa | - | - | - | - |
| 1777948355 | 5.56° C | 87% | 1000.3 hPa | - | - | - | - |
| 1777947859 | 5.56° C | 87% | 1000.3 hPa | - | - | - | - |
| 1777947362 | 6.11° C | 86% | 1000.3 hPa | - | - | - | - |
| 1777946790 | 6.11° C | 86% | 1000.4 hPa | - | - | - | - |
* Rain since midnight (hover to see other rain measurements)
** Current wind speed in m/s (hover to see current wind gust speed)